Time;durP1;ratioP1;P1;durP2;ratioP2;P2;SDS_P1;SDS_P2;PMS_P1;PMS_P2;Temp;Humidity;BMP_temperature;BMP_pressure;BME280_temperature;BME280_humidity;BME280_pressure;Samples;Min_cycle;Max_cycle;Signal;HPM_P1;HPM_P2
2023/10/25 00:00:17;;;;;;;1.30;0.50;;;19.80;68.70;;;;;;6278788;22;20077;-61
2023/10/25 00:02:43;;;;;;;1.35;0.63;;;19.80;68.70;;;;;;6307791;22;20037;-61
2023/10/25 00:05:08;;;;;;;1.30;0.50;;;19.80;68.70;;;;;;6279967;22;20039;-61
2023/10/25 00:07:34;;;;;;;1.55;0.50;;;19.80;68.60;;;;;;6306964;22;20439;-61
2023/10/25 00:10:02;;;;;;;1.27;0.57;;;19.80;68.70;;;;;;6280236;22;20443;-61
2023/10/25 00:12:28;;;;;;;;;;;19.80;68.70;;;;;;6307761;22;20031;-61
2023/10/25 00:14:53;;;;;;;1.70;0.40;;;19.70;68.50;;;;;;6279670;22;19914;-61
2023/10/25 00:17:19;;;;;;;1.45;0.57;;;19.70;68.60;;;;;;6279853;22;20026;-61
2023/10/25 00:19:44;;;;;;;1.00;0.50;;;19.80;68.60;;;;;;6308002;22;20015;-61
2023/10/25 00:22:10;;;;;;;1.45;0.70;;;19.70;68.60;;;;;;6306741;22;20011;-61
2023/10/25 00:24:35;;;;;;;2.17;0.70;;;19.70;68.60;;;;;;6280185;22;20316;-61
2023/10/25 00:27:01;;;;;;;2.90;0.65;;;19.70;68.60;;;;;;6307500;22;20047;-61
2023/10/25 00:29:26;;;;;;;1.90;0.60;;;19.70;68.60;;;;;;6306640;22;20023;-61
2023/10/25 00:31:52;;;;;;;1.52;0.55;;;19.70;68.60;;;;;;6307634;22;20019;-61
2023/10/25 00:34:18;;;;;;;1.63;0.70;;;19.70;68.60;;;;;;6278976;22;20090;-61
2023/10/25 00:36:43;;;;;;;1.27;0.50;;;19.70;68.60;;;;;;6279788;22;20019;-60
2023/10/25 00:39:09;;;;;;;2.33;0.68;;;19.70;68.60;;;;;;6306926;22;20019;-62
2023/10/25 00:41:34;;;;;;;1.58;0.50;;;19.70;68.60;;;;;;6279116;22;20019;-61
2023/10/25 00:44:00;;;;;;;2.50;0.55;;;19.70;68.50;;;;;;6307748;22;20064;-61
2023/10/25 00:46:26;;;;;;;1.73;0.60;;;19.70;68.50;;;;;;6306801;22;20050;-61
2023/10/25 00:48:54;;;;;;;1.45;0.40;;;19.70;68.50;;;;;;6254374;22;20086;-61
2023/10/25 00:51:20;;;;;;;1.55;0.55;;;19.70;68.50;;;;;;6307276;22;20015;-61
2023/10/25 00:53:50;;;;;;;2.72;0.80;;;19.60;68.50;;;;;;6280375;22;20019;-61
2023/10/25 00:56:16;;;;;;;1.90;0.52;;;19.70;68.50;;;;;;6305553;22;20106;-61
2023/10/25 00:58:47;;;;;;;0.73;0.45;;;19.60;68.40;;;;;;6307415;22;20401;-61
2023/10/25 01:01:13;;;;;;;2.35;0.88;;;19.60;68.40;;;;;;6281010;22;20423;-61
2023/10/25 01:03:40;;;;;;;1.45;0.52;;;19.70;68.50;;;;;;6253670;22;20027;-61
2023/10/25 01:06:05;;;;;;;2.15;0.63;;;19.60;68.40;;;;;;6307102;22;20451;-61
2023/10/25 01:08:31;;;;;;;1.55;0.40;;;19.70;68.40;;;;;;6306704;22;20019;-61
2023/10/25 01:10:57;;;;;;;2.28;0.50;;;19.60;68.40;;;;;;6253541;22;20026;-61
2023/10/25 01:13:22;;;;;;;1.60;0.60;;;19.60;68.40;;;;;;6307041;22;20047;-61
2023/10/25 01:15:48;;;;;;;1.42;0.40;;;19.70;68.40;;;;;;6307427;22;20447;-61
2023/10/25 01:18:14;;;;;;;1.52;0.60;;;19.60;68.40;;;;;;6305941;22;20342;-61
2023/10/25 01:20:40;;;;;;;0.63;0.40;;;19.60;68.40;;;;;;6307309;22;20007;-61
2023/10/25 01:23:06;;;;;;;2.20;0.57;;;19.60;68.40;;;;;;6306982;22;20496;-61
2023/10/25 01:25:31;;;;;;;0.90;0.55;;;19.60;68.30;;;;;;6305910;22;20098;-61
2023/10/25 01:27:58;;;;;;;1.95;0.77;;;19.60;68.40;;;;;;6306992;22;20023;-61
2023/10/25 01:30:24;;;;;;;1.55;0.55;;;19.60;68.30;;;;;;6307048;22;20029;-61
2023/10/25 01:32:49;;;;;;;2.28;0.52;;;19.60;68.30;;;;;;6306427;22;20011;-61
2023/10/25 01:35:15;;;;;;;0.80;0.50;;;19.60;68.30;;;;;;6306597;22;20023;-61
2023/10/25 01:37:41;;;;;;;1.02;0.40;;;19.60;68.30;;;;;;6306314;22;20030;-61
2023/10/25 01:40:07;;;;;;;1.42;0.50;;;19.60;68.30;;;;;;6306820;22;20023;-61
2023/10/25 01:42:32;;;;;;;1.20;0.50;;;19.60;68.30;;;;;;6279689;22;20015;-61
2023/10/25 01:44:58;;;;;;;1.75;0.60;;;19.60;68.30;;;;;;6278799;22;20026;-61
2023/10/25 01:47:24;;;;;;;1.02;0.52;;;19.50;68.30;;;;;;6279171;22;20065;-61
2023/10/25 01:49:49;;;;;;;2.53;0.60;;;19.60;68.30;;;;;;6279653;22;20470;-61
2023/10/25 01:52:15;;;;;;;1.65;0.50;;;19.50;68.30;;;;;;6305763;22;20019;-61
2023/10/25 01:54:42;;;;;;;1.15;0.50;;;19.50;68.30;;;;;;6307197;22;20094;-61
2023/10/25 01:57:07;;;;;;;1.33;0.50;;;19.50;68.30;;;;;;6306993;22;20076;-61
2023/10/25 01:59:33;;;;;;;1.52;0.60;;;19.50;68.30;;;;;;6306030;22;20415;-61
2023/10/25 02:01:58;;;;;;;1.52;0.63;;;19.50;68.30;;;;;;6279277;22;20084;-61
2023/10/25 02:04:24;;;;;;;2.83;0.60;;;19.50;68.30;;;;;;6306406;22;20026;-61
2023/10/25 02:06:51;;;;;;;2.05;0.60;;;19.50;68.30;;;;;;6305994;22;20023;-61
2023/10/25 02:09:21;;;;;;;1.73;0.50;;;19.50;68.30;;;;;;6307665;22;20015;-61
2023/10/25 02:11:47;;;;;;;0.70;0.45;;;19.50;68.30;;;;;;6309179;22;20048;-61
2023/10/25 02:14:13;;;;;;;1.25;0.68;;;19.50;68.30;;;;;;6307661;22;20085;-61
2023/10/25 02:16:38;;;;;;;0.50;0.40;;;19.50;68.30;;;;;;6309086;22;20090;-61
2023/10/25 02:19:04;;;;;;;1.63;0.50;;;19.50;68.20;;;;;;6281195;22;20417;-61
2023/10/25 02:21:34;;;;;;;0.93;0.50;;;19.50;68.20;;;;;;6307856;22;20124;-60
2023/10/25 02:24:00;;;;;;;0.98;0.55;;;19.50;68.20;;;;;;6308718;22;20513;-61
2023/10/25 02:26:27;;;;;;;2.58;0.60;;;19.40;68.10;;;;;;6308580;22;20031;-61
2023/10/25 02:28:52;;;;;;;1.70;0.50;;;19.50;68.20;;;;;;6307961;22;20023;-61
2023/10/25 02:31:18;;;;;;;1.40;0.43;;;19.40;68.10;;;;;;6309214;22;20061;-61
2023/10/25 02:33:44;;;;;;;1.67;0.50;;;19.40;68.10;;;;;;6309445;22;20087;-61
2023/10/25 02:36:09;;;;;;;1.02;0.57;;;19.40;68.10;;;;;;6308315;22;20027;-61
2023/10/25 02:38:35;;;;;;;0.98;0.43;;;19.40;68.10;;;;;;6309192;22;20019;-61
2023/10/25 02:41:00;;;;;;;1.10;0.60;;;19.40;68.10;;;;;;6307967;22;20019;-61
2023/10/25 02:43:26;;;;;;;0.88;0.57;;;19.40;68.10;;;;;;6307871;22;20012;-61
2023/10/25 02:45:52;;;;;;;1.58;0.60;;;19.40;68.10;;;;;;6308949;22;20053;-61
2023/10/25 02:48:18;;;;;;;1.08;0.60;;;19.40;68.10;;;;;;6307143;22;20011;-61
2023/10/25 02:50:43;;;;;;;2.05;0.50;;;19.40;68.10;;;;;;6308839;22;20015;-61
2023/10/25 02:53:09;;;;;;;1.13;0.57;;;19.40;68.10;;;;;;6308197;22;20072;-62
2023/10/25 02:55:35;;;;;;;1.00;0.40;;;19.40;68.10;;;;;;6307932;22;20064;-61
2023/10/25 02:58:01;;;;;;;1.67;0.57;;;19.40;68.10;;;;;;6308636;22;20015;-61
2023/10/25 03:00:26;;;;;;;1.80;0.57;;;19.40;68.00;;;;;;6280724;22;20015;-61
2023/10/25 03:02:52;;;;;;;3.42;0.77;;;19.40;68.00;;;;;;6307107;22;20026;-61
2023/10/25 03:05:18;;;;;;;1.25;0.60;;;19.40;68.00;;;;;;6308511;22;20382;-61
2023/10/25 03:07:43;;;;;;;1.52;0.60;;;19.40;68.00;;;;;;6308691;22;20018;-61
2023/10/25 03:10:09;;;;;;;1.27;0.50;;;19.40;68.00;;;;;;6307300;22;20399;-61
2023/10/25 03:12:34;;;;;;;1.05;0.50;;;19.50;68.00;;;;;;6308557;22;20050;-61
2023/10/25 03:15:00;;;;;;;1.27;0.43;;;19.40;68.00;;;;;;6308562;22;20015;-61
2023/10/25 03:17:29;;;;;;;1.65;0.60;;;19.50;68.00;;;;;;6306919;22;20023;-61
2023/10/25 03:19:54;;;;;;;2.63;0.60;;;19.50;68.00;;;;;;6280693;22;20497;-61
2023/10/25 03:22:20;;;;;;;0.98;0.47;;;19.50;68.00;;;;;;6280227;22;20015;-61
2023/10/25 03:24:46;;;;;;;1.25;0.47;;;19.50;68.60;;;;;;6279965;22;20436;-61
2023/10/25 03:27:12;;;;;;;1.40;0.63;;;19.50;67.90;;;;;;6280368;22;20091;-61
2023/10/25 03:29:37;;;;;;;1.60;0.50;;;19.50;67.90;;;;;;6308464;22;20051;-61
2023/10/25 03:32:03;;;;;;;1.88;0.50;;;19.50;67.90;;;;;;6279692;22;20019;-61
2023/10/25 03:34:29;;;;;;;0.80;0.40;;;19.50;67.90;;;;;;6307916;22;20439;-61
2023/10/25 03:36:55;;;;;;;0.80;0.60;;;19.50;67.80;;;;;;6280553;22;20093;-61
2023/10/25 03:39:20;;;;;;;2.03;0.60;;;19.60;67.90;;;;;;6307011;22;20045;-61
2023/10/25 03:41:46;;;;;;;1.15;0.60;;;19.60;67.90;;;;;;6308178;22;20023;-61
2023/10/25 03:44:12;;;;;;;1.98;0.60;;;19.60;67.90;;;;;;6306706;22;20094;-61
2023/10/25 03:46:38;;;;;;;0.93;0.50;;;19.60;67.80;;;;;;6308078;22;20078;-61
2023/10/25 03:49:04;;;;;;;2.15;0.60;;;19.60;67.90;;;;;;6308321;22;20050;-61
2023/10/25 03:51:30;;;;;;;4.07;0.73;;;19.60;67.80;;;;;;6306858;22;20019;-61
2023/10/25 03:53:56;;;;;;;1.20;0.50;;;19.60;67.80;;;;;;6280376;22;20482;-61
2023/10/25 03:56:21;;;;;;;2.15;0.68;;;19.70;67.80;;;;;;6279939;22;20058;-61
2023/10/25 03:58:47;;;;;;;0.82;0.45;;;19.70;67.80;;;;;;6307323;22;20435;-61
2023/10/25 04:01:13;;;;;;;1.25;0.50;;;19.70;67.80;;;;;;6306629;22;20019;-61
2023/10/25 04:03:38;;;;;;;1.10;0.50;;;19.70;67.70;;;;;;6280086;22;20020;-61
2023/10/25 04:06:05;;;;;;;1.00;0.40;;;19.70;67.70;;;;;;6306100;22;20018;-61
2023/10/25 04:08:31;;;;;;;1.00;0.55;;;19.70;67.70;;;;;;6307111;22;20095;-61
2023/10/25 04:10:57;;;;;;;1.65;0.57;;;19.70;67.70;;;;;;6307935;22;20015;-61
2023/10/25 04:13:23;;;;;;;2.90;0.60;;;19.80;67.70;;;;;;6306469;22;20007;-61
2023/10/25 04:16:00;;;;;;;2.08;0.60;;;19.70;67.60;;;;;;6307490;22;20343;-61
2023/10/25 04:18:27;;;;;;;1.48;0.40;;;19.70;67.70;;;;;;6307559;22;20027;-61
2023/10/25 04:20:53;;;;;;;1.88;0.55;;;19.80;67.70;;;;;;6279412;22;20016;-61
2023/10/25 04:23:19;;;;;;;1.23;0.50;;;19.80;67.70;;;;;;6307742;22;20012;-61
2023/10/25 04:25:45;;;;;;;1.35;0.60;;;19.80;67.60;;;;;;6307813;22;20492;-61
2023/10/25 04:28:10;;;;;;;1.48;0.60;;;19.80;67.60;;;;;;6306213;22;20465;-61
2023/10/25 04:30:36;;;;;;;1.25;0.50;;;19.80;67.60;;;;;;6307361;22;20022;-61
2023/10/25 04:33:02;;;;;;;1.35;0.55;;;19.80;67.60;;;;;;6307667;22;20064;-61
2023/10/25 04:35:27;;;;;;;0.68;0.47;;;19.80;67.60;;;;;;6306421;22;20019;-61
2023/10/25 04:37:55;;;;;;;0.82;0.50;;;19.80;67.60;;;;;;6307529;22;20473;-61
2023/10/25 04:40:21;;;;;;;1.40;0.77;;;19.80;67.60;;;;;;6306982;22;20011;-61
2023/10/25 04:42:48;;;;;;;0.70;0.52;;;19.80;67.60;;;;;;6306388;22;20328;-61
2023/10/25 04:45:14;;;;;;;2.22;0.68;;;19.90;67.60;;;;;;6306768;22;20015;-61
2023/10/25 04:47:40;;;;;;;1.90;0.40;;;19.90;67.60;;;;;;6279150;22;20023;-61
2023/10/25 04:50:06;;;;;;;0.98;0.50;;;19.90;67.60;;;;;;6307456;22;20019;-61
2023/10/25 04:52:32;;;;;;;1.70;0.50;;;19.90;67.60;;;;;;6279750;22;20023;-61
2023/10/25 04:54:58;;;;;;;0.52;0.40;;;19.90;67.60;;;;;;6306270;22;20029;-61
2023/10/25 04:57:23;;;;;;;1.05;0.50;;;19.90;67.60;;;;;;6279417;22;20094;-61
2023/10/25 04:59:49;;;;;;;0.98;0.50;;;19.90;67.60;;;;;;6307469;22;20019;-61
2023/10/25 05:02:14;;;;;;;1.55;0.50;;;19.90;67.60;;;;;;6278412;22;20023;-61
2023/10/25 05:04:40;;;;;;;1.38;0.50;;;19.90;67.60;;;;;;6307448;22;20446;-61
2023/10/25 05:07:06;;;;;;;1.00;0.60;;;19.90;67.60;;;;;;6307546;22;20093;-61
2023/10/25 05:09:32;;;;;;;1.10;0.55;;;20.00;67.60;;;;;;6306079;22;20030;-61
2023/10/25 05:12:04;;;;;;;1.25;0.63;;;19.90;67.60;;;;;;6279811;22;20027;-61
2023/10/25 05:14:30;;;;;;;0.60;0.50;;;19.90;67.60;;;;;;6307048;22;20037;-61
2023/10/25 05:16:56;;;;;;;1.42;0.50;;;19.90;67.60;;;;;;6306433;22;20020;-61
2023/10/25 05:19:22;;;;;;;0.95;0.40;;;20.00;67.60;;;;;;6279715;22;20088;-61
2023/10/25 05:21:51;;;;;;;1.67;0.52;;;20.00;67.50;;;;;;6307521;22;20324;-60
2023/10/25 05:24:17;;;;;;;1.90;0.60;;;20.00;67.60;;;;;;6305685;22;20019;-61
2023/10/25 05:26:44;;;;;;;2.10;0.50;;;20.00;68.10;;;;;;6307115;22;20019;-61
2023/10/25 05:29:10;;;;;;;2.10;0.65;;;20.00;67.50;;;;;;6279337;22;20019;-62
2023/10/25 05:31:35;;;;;;;1.98;0.60;;;20.00;67.50;;;;;;6305680;22;20021;-61
2023/10/25 05:34:01;;;;;;;2.85;0.50;;;20.00;67.50;;;;;;6254109;22;20026;-61
2023/10/25 05:36:27;;;;;;;1.48;0.60;;;20.00;67.50;;;;;;6306800;22;20097;-62
2023/10/25 05:38:53;;;;;;;2.28;0.50;;;20.00;67.40;;;;;;6306426;22;20432;-61
2023/10/25 05:41:22;;;;;;;1.85;0.70;;;20.00;67.40;;;;;;6306245;22;20423;-61
2023/10/25 05:43:58;;;;;;;0.73;0.40;;;20.00;67.40;;;;;;6305971;22;20051;-61
2023/10/25 05:46:23;;;;;;;1.17;0.60;;;20.00;67.40;;;;;;6306619;22;20019;-61
2023/10/25 05:48:49;;;;;;;1.70;0.60;;;20.00;67.40;;;;;;6279510;22;20044;-60
2023/10/25 05:51:15;;;;;;;2.60;0.80;;;20.00;67.40;;;;;;6305889;22;20015;-64
2023/10/25 05:53:41;;;;;;;3.17;0.65;;;20.00;67.00;;;;;;6307086;22;20020;-61
2023/10/25 05:56:07;;;;;;;1.33;0.73;;;20.00;66.90;;;;;;6306765;22;20019;-61
2023/10/25 05:58:33;;;;;;;1.50;0.63;;;20.00;66.90;;;;;;6305621;22;20072;-62
2023/10/25 06:01:00;;;;;;;2.20;0.70;;;20.00;67.00;;;;;;6306797;22;20366;-63
2023/10/25 06:03:25;;;;;;;2.67;0.60;;;20.00;67.00;;;;;;6254009;22;20049;-61
2023/10/25 06:05:56;;;;;;;3.25;0.82;;;20.00;67.00;;;;;;6278519;22;20038;-60
2023/10/25 06:08:21;;;;;;;4.28;0.88;;;20.00;66.90;;;;;;6304868;22;20011;-61
2023/10/25 06:10:48;;;;;;;2.00;0.80;;;20.00;66.90;;;;;;6306470;22;20461;-61
2023/10/25 06:13:15;;;;;;;3.25;0.68;;;20.00;66.90;;;;;;6305650;22;20015;-61
2023/10/25 06:15:40;;;;;;;3.20;0.73;;;20.00;66.90;;;;;;6306891;22;20061;-62
2023/10/25 06:18:07;;;;;;;1.38;0.70;;;20.00;67.00;;;;;;6303717;22;20020;-63
2023/10/25 06:20:34;;;;;;;2.35;0.60;;;20.00;67.00;;;;;;6304674;22;20095;-63
2023/10/25 06:23:00;;;;;;;1.92;0.57;;;20.10;67.20;;;;;;6306523;22;20023;-63
2023/10/25 06:25:27;;;;;;;1.95;0.70;;;20.10;67.20;;;;;;6306421;22;20026;-63
2023/10/25 06:27:53;;;;;;;2.38;0.60;;;20.10;67.30;;;;;;6305538;22;20026;-65
2023/10/25 06:30:18;;;;;;;1.80;0.70;;;20.10;67.30;;;;;;6278645;22;20020;-63
2023/10/25 06:32:44;;;;;;;1.77;0.70;;;20.10;67.30;;;;;;6278762;22;20024;-63
2023/10/25 06:35:09;;;;;;;3.10;0.80;;;20.10;67.40;;;;;;6277585;22;20011;-63
2023/10/25 06:37:35;;;;;;;1.48;0.73;;;20.10;67.40;;;;;;6306316;22;20027;-63
2023/10/25 06:40:01;;;;;;;2.75;0.80;;;20.10;67.50;;;;;;6277859;22;20023;-63
2023/10/25 06:42:27;;;;;;;2.88;0.80;;;20.10;67.70;;;;;;6278508;22;20023;-63
2023/10/25 06:44:53;;;;;;;1.65;0.80;;;20.20;67.80;;;;;;6306720;22;20034;-63
2023/10/25 06:47:18;;;;;;;2.78;0.80;;;20.20;67.80;;;;;;6305383;22;20019;-63
2023/10/25 06:49:44;;;;;;;3.30;0.75;;;20.20;67.80;;;;;;6306673;22;20408;-64
2023/10/25 06:52:10;;;;;;;3.63;0.70;;;20.20;67.80;;;;;;6279012;22;20019;-64
2023/10/25 06:54:36;;;;;;;2.53;0.80;;;20.20;67.80;;;;;;6306043;22;20019;-64
2023/10/25 06:57:02;;;;;;;1.67;0.60;;;20.20;67.80;;;;;;6308122;22;20316;-64
2023/10/25 06:59:28;;;;;;;3.20;0.70;;;20.20;67.90;;;;;;6307665;22;20019;-59
2023/10/25 07:02:01;;;;;;;2.47;1.08;;;20.20;67.90;;;;;;6306397;22;20038;-60
2023/10/25 07:04:26;;;;;;;1.70;0.63;;;20.20;67.90;;;;;;6255946;22;20019;-60
2023/10/25 07:06:52;;;;;;;1.13;0.60;;;20.20;67.80;;;;;;6255579;22;20030;-60
2023/10/25 07:09:18;;;;;;;1.60;0.60;;;20.30;67.80;;;;;;6278795;22;20050;-60
2023/10/25 07:11:43;;;;;;;2.38;0.77;;;20.30;67.70;;;;;;6307785;22;20015;-60
2023/10/25 07:14:09;;;;;;;2.75;0.80;;;20.20;67.60;;;;;;6307651;22;20102;-61
2023/10/25 07:16:35;;;;;;;1.80;1.00;;;20.30;67.60;;;;;;6279758;22;20470;-61
2023/10/25 07:19:01;;;;;;;3.92;0.82;;;20.20;67.50;;;;;;6280637;22;20134;-62
2023/10/25 07:21:26;;;;;;;2.58;0.77;;;20.20;67.50;;;;;;6279110;22;20078;-63
2023/10/25 07:23:53;;;;;;;2.25;0.82;;;20.20;67.70;;;;;;6307003;22;20068;-61
2023/10/25 07:26:18;;;;;;;3.50;0.80;;;20.20;67.80;;;;;;6307424;22;20020;-61
2023/10/25 07:28:44;;;;;;;1.80;0.60;;;20.30;67.80;;;;;;6307688;22;20023;-62
2023/10/25 07:31:10;;;;;;;2.10;0.75;;;20.30;67.80;;;;;;6306990;22;20022;-62
2023/10/25 07:33:35;;;;;;;2.08;0.73;;;20.30;67.80;;;;;;6308060;22;20045;-61
2023/10/25 07:36:01;;;;;;;1.85;0.60;;;20.30;67.80;;;;;;6307797;22;20023;-62
2023/10/25 07:38:26;;;;;;;1.90;0.70;;;20.30;67.80;;;;;;6279440;22;20015;-62
2023/10/25 07:40:52;;;;;;;2.50;0.73;;;20.30;67.70;;;;;;6280728;22;20064;-62
2023/10/25 07:43:17;;;;;;;3.15;0.82;;;20.20;67.60;;;;;;6279559;22;20015;-62
2023/10/25 07:45:43;;;;;;;3.83;0.90;;;20.30;67.60;;;;;;6280401;22;20011;-62
2023/10/25 07:48:09;;;;;;;4.30;0.95;;;20.20;67.50;;;;;;6280204;22;20023;-62
2023/10/25 07:50:34;;;;;;;4.70;0.88;;;20.20;67.50;;;;;;6307018;22;20153;-62
2023/10/25 07:53:00;;;;;;;5.50;1.33;;;20.20;67.50;;;;;;6307828;22;20026;-61
2023/10/25 07:55:25;;;;;;;4.07;0.80;;;20.20;67.40;;;;;;6279742;22;20023;-62
2023/10/25 07:57:51;;;;;;;3.00;0.75;;;20.20;67.40;;;;;;6307016;22;20086;-62
2023/10/25 08:00:17;;;;;;;3.35;0.90;;;20.20;67.40;;;;;;6307436;22;20370;-62
2023/10/25 08:02:42;;;;;;;1.70;0.80;;;20.20;67.50;;;;;;6307541;22;20042;-62
2023/10/25 08:05:08;;;;;;;3.45;1.05;;;20.20;67.50;;;;;;6306772;22;20023;-62
2023/10/25 08:07:36;;;;;;;4.13;1.00;;;20.20;67.50;;;;;;6306847;22;20019;-61
2023/10/25 08:10:03;;;;;;;2.58;0.90;;;20.20;67.40;;;;;;6308268;22;20011;-62
2023/10/25 08:12:29;;;;;;;2.22;0.88;;;20.10;67.40;;;;;;6305942;22;20432;-61
2023/10/25 08:14:55;;;;;;;3.22;0.77;;;20.20;67.40;;;;;;6307743;22;20065;-62
2023/10/25 08:17:20;;;;;;;4.25;1.05;;;20.20;67.40;;;;;;6307079;22;20065;-62
2023/10/25 08:19:46;;;;;;;2.95;0.90;;;20.20;67.40;;;;;;6306729;22;20015;-62
2023/10/25 08:22:11;;;;;;;2.70;1.00;;;20.20;67.40;;;;;;6307327;22;20015;-62
2023/10/25 08:24:37;;;;;;;3.33;0.90;;;20.10;67.40;;;;;;6279586;22;20102;-62
2023/10/25 08:27:03;;;;;;;2.70;1.05;;;20.10;67.40;;;;;;6306389;22;20023;-62
2023/10/25 08:29:28;;;;;;;3.33;0.90;;;20.20;67.40;;;;;;6307544;22;20023;-62
2023/10/25 08:31:54;;;;;;;2.30;1.00;;;20.10;67.40;;;;;;6307743;22;20023;-61
2023/10/25 08:34:19;;;;;;;2.22;0.90;;;20.10;67.40;;;;;;6278939;22;20033;-62
2023/10/25 08:36:45;;;;;;;3.17;0.82;;;20.10;67.40;;;;;;6279707;22;20019;-62
2023/10/25 08:39:10;;;;;;;3.13;0.85;;;20.10;67.40;;;;;;6279506;22;20508;-62
2023/10/25 08:41:36;;;;;;;2.40;0.70;;;20.10;67.40;;;;;;6306836;22;20019;-62
2023/10/25 08:44:02;;;;;;;5.25;1.13;;;20.10;67.40;;;;;;6229174;22;20019;-62
2023/10/25 08:46:29;;;;;;;3.45;0.98;;;20.10;67.40;;;;;;6279742;22;20542;-61
2023/10/25 08:48:55;;;;;;;3.80;0.95;;;20.10;67.40;;;;;;6278824;22;20019;-61
2023/10/25 08:51:21;;;;;;;4.78;1.05;;;20.10;67.40;;;;;;6307196;22;20499;-61
2023/10/25 08:53:47;;;;;;;3.00;1.00;;;20.10;67.30;;;;;;6279062;22;20117;-62
2023/10/25 08:56:13;;;;;;;4.05;0.93;;;20.10;67.30;;;;;;6280010;22;20037;-61
2023/10/25 08:58:39;;;;;;;2.58;0.98;;;20.10;67.30;;;;;;6279862;22;20494;-62
2023/10/25 09:01:04;;;;;;;2.55;0.85;;;20.10;67.30;;;;;;6278825;22;20343;-62
2023/10/25 09:03:30;;;;;;;2.95;1.00;;;20.10;67.30;;;;;;6279453;22;20071;-61
2023/10/25 09:05:55;;;;;;;3.88;1.08;;;20.10;67.30;;;;;;6307022;22;20061;-61
2023/10/25 09:08:21;;;;;;;3.05;1.00;;;20.10;67.30;;;;;;6305747;22;20068;-62
2023/10/25 09:10:54;;;;;;;2.40;1.20;;;20.10;67.20;;;;;;6307433;22;20015;-62
2023/10/25 09:13:20;;;;;;;3.28;0.98;;;20.10;67.20;;;;;;6306614;22;20023;-61
2023/10/25 09:15:45;;;;;;;2.17;0.90;;;20.10;67.20;;;;;;6306318;22;20019;-61
2023/10/25 09:18:11;;;;;;;2.38;0.95;;;20.10;67.20;;;;;;6306407;22;20094;-62
2023/10/25 09:20:36;;;;;;;2.63;0.93;;;20.10;67.20;;;;;;6307215;22;20054;-62
2023/10/25 09:23:11;;;;;;;1.80;0.85;;;20.10;67.20;;;;;;6278269;22;20011;-61
2023/10/25 09:25:37;;;;;;;2.13;1.05;;;20.10;67.20;;;;;;6306777;22;20015;-61
2023/10/25 09:28:27;;;;;;;2.25;1.02;;;20.10;67.10;;;;;;6279218;22;20101;-62
2023/10/25 09:30:54;;;;;;;2.70;1.02;;;20.20;67.10;;;;;;6278721;22;20047;-62
2023/10/25 09:33:19;;;;;;;3.20;0.90;;;20.20;67.00;;;;;;6306409;22;20026;-62
2023/10/25 09:35:45;;;;;;;3.97;1.15;;;20.20;67.00;;;;;;6306886;22;20020;-62
2023/10/25 09:38:11;;;;;;;2.67;1.30;;;20.20;66.90;;;;;;6278312;22;20030;-61
2023/10/25 09:40:38;;;;;;;2.88;1.00;;;20.20;66.90;;;;;;6306771;22;20015;-61
2023/10/25 09:43:04;;;;;;;3.25;1.10;;;20.20;66.90;;;;;;6254101;22;20026;-61
2023/10/25 09:45:29;;;;;;;2.28;0.98;;;20.20;66.90;;;;;;6254066;22;20019;-61
2023/10/25 09:47:56;;;;;;;2.28;1.20;;;20.20;66.90;;;;;;6254558;22;20424;-61
2023/10/25 09:50:33;;;;;;;2.70;1.10;;;20.20;66.90;;;;;;6278535;22;20045;-61
2023/10/25 09:53:26;;;;;;;2.42;0.93;;;20.20;67.00;;;;;;6279550;22;20466;-62
2023/10/25 09:55:54;;;;;;;2.65;1.08;;;20.20;67.00;;;;;;6282035;22;20420;-61
2023/10/25 09:58:22;;;;;;;1.50;1.00;;;20.20;66.90;;;;;;6305636;22;20365;-61
2023/10/25 10:00:48;;;;;;;3.63;1.40;;;20.20;67.00;;;;;;6306859;22;20019;-62
2023/10/25 10:03:34;;;;;;;4.00;1.40;;;20.20;67.40;;;;;;6278861;22;20016;-62
2023/10/25 10:06:09;;;;;;;3.03;1.55;;;20.20;66.50;;;;;;6279792;22;20019;-61
2023/10/25 10:08:50;;;;;;;2.80;1.10;;;20.20;66.50;;;;;;6279495;22;20152;-61
2023/10/25 10:11:17;;;;;;;4.07;1.35;;;20.20;66.60;;;;;;6227522;22;20015;-63
2023/10/25 10:13:43;;;;;;;2.60;1.50;;;20.10;66.60;;;;;;6279335;22;20015;-62
2023/10/25 10:16:09;;;;;;;3.92;1.48;;;20.10;66.60;;;;;;6306539;22;20015;-62
2023/10/25 10:18:42;;;;;;;2.83;1.40;;;20.10;66.70;;;;;;6278512;22;20015;-62
2023/10/25 10:21:09;;;;;;;3.22;1.45;;;20.20;66.70;;;;;;6306973;22;20064;-62
2023/10/25 10:23:50;;;;;;;3.80;1.45;;;20.10;66.70;;;;;;6307114;22;20011;-62
2023/10/25 10:26:44;;;;;;;1.88;1.02;;;20.20;66.70;;;;;;6278035;22;20090;-62
2023/10/25 10:29:31;;;;;;;3.67;1.23;;;20.10;66.60;;;;;;6278545;22;20019;-62
2023/10/25 10:31:58;;;;;;;5.15;1.30;;;20.10;66.40;;;;;;6281266;22;20101;-62
2023/10/25 10:34:53;;;;;;;5.13;1.40;;;20.10;66.50;;;;;;6307458;22;20023;-61
2023/10/25 10:37:21;;;;;;;3.47;1.50;;;20.10;67.20;;;;;;6294145;22;20027;-61
2023/10/25 10:39:56;;;;;;;5.82;1.67;;;20.10;66.60;;;;;;6307981;22;20026;-62
2023/10/25 10:42:31;;;;;;;5.93;1.90;;;20.10;66.70;;;;;;6307764;22;20019;-61
2023/10/25 10:44:57;;;;;;;6.10;1.73;;;20.10;66.80;;;;;;6308891;22;20015;-62
2023/10/25 10:47:36;;;;;;;4.93;1.60;;;20.10;66.90;;;;;;6307077;22;20041;-61
2023/10/25 10:50:18;;;;;;;6.85;1.70;;;20.10;67.10;;;;;;6308564;22;20069;-62
2023/10/25 10:52:44;;;;;;;5.55;1.58;;;20.10;67.20;;;;;;6280943;22;20042;-62
2023/10/25 10:55:15;;;;;;;3.65;1.50;;;20.10;67.20;;;;;;6307354;22;20373;-62
2023/10/25 10:57:40;;;;;;;5.88;1.58;;;20.10;67.30;;;;;;6307938;22;20023;-61
2023/10/25 11:00:08;;;;;;;3.05;1.48;;;20.10;67.30;;;;;;6308213;22;20384;-61
2023/10/25 11:02:37;;;;;;;4.77;1.60;;;20.10;67.30;;;;;;6307368;22;20019;-61
2023/10/25 11:05:04;;;;;;;7.90;1.65;;;20.10;67.30;;;;;;6280213;22;20281;-60
2023/10/25 11:07:30;;;;;;;8.00;1.95;;;20.10;67.40;;;;;;6306949;22;20031;-67
2023/10/25 11:09:56;;;;;;;4.80;1.50;;;20.10;67.50;;;;;;6280245;22;20382;-61
2023/10/25 11:12:21;;;;;;;4.88;1.52;;;20.10;67.50;;;;;;6307469;22;20486;-62
2023/10/25 11:14:50;;;;;;;4.32;1.33;;;20.10;67.60;;;;;;6253789;22;20011;-62
2023/10/25 11:17:15;;;;;;;;;;;20.10;67.60;;;;;;6280590;22;20090;-62
2023/10/25 11:19:47;;;;;;;5.10;1.58;;;20.10;67.30;;;;;;6307551;22;19953;-62
2023/10/25 11:22:13;;;;;;;4.32;1.17;;;20.00;67.40;;;;;;6307033;22;20015;-62
2023/10/25 11:24:38;;;;;;;5.78;1.50;;;20.00;67.30;;;;;;6279922;22;20084;-62
2023/10/25 11:27:04;;;;;;;4.45;1.45;;;20.00;67.30;;;;;;6307691;22;20030;-62
2023/10/25 11:29:35;;;;;;;4.78;1.30;;;20.00;67.30;;;;;;6307020;22;20019;-63
2023/10/25 11:32:06;;;;;;;3.88;1.50;;;20.00;67.40;;;;;;6280904;22;20382;-62
2023/10/25 11:34:35;;;;;;;4.60;0.98;;;20.00;67.40;;;;;;6307145;22;20073;-62
2023/10/25 11:37:01;;;;;;;4.18;1.40;;;20.00;67.30;;;;;;6279406;22;20011;-62
2023/10/25 11:39:30;;;;;;;5.30;1.13;;;20.00;67.30;;;;;;6279928;22;20072;-62
2023/10/25 11:41:57;;;;;;;6.07;1.00;;;20.00;67.30;;;;;;6254928;22;20023;-62
2023/10/25 11:44:23;;;;;;;4.78;1.50;;;20.00;67.30;;;;;;6279221;22;20459;-62
2023/10/25 11:46:51;;;;;;;4.22;1.70;;;20.00;67.20;;;;;;6308155;22;20030;-62
2023/10/25 11:49:18;;;;;;;3.03;1.15;;;20.00;67.20;;;;;;6307401;22;20030;-63
2023/10/25 11:51:45;;;;;;;5.82;1.10;;;20.00;67.20;;;;;;6279233;22;20026;-63
2023/10/25 11:54:11;;;;;;;2.95;1.10;;;20.00;67.30;;;;;;6280223;22;20347;-63
2023/10/25 11:56:36;;;;;;;8.05;1.25;;;20.00;67.30;;;;;;6279379;22;20019;-63
2023/10/25 11:59:02;;;;;;;7.75;1.30;;;20.10;67.40;;;;;;6307616;22;20101;-62
2023/10/25 12:01:27;;;;;;;3.08;1.05;;;20.10;67.40;;;;;;6307151;22;20019;-62
2023/10/25 12:03:53;;;;;;;3.58;1.08;;;20.10;67.50;;;;;;6279275;22;20023;-62
2023/10/25 12:06:19;;;;;;;3.78;1.23;;;20.10;67.50;;;;;;6307243;22;20027;-62
2023/10/25 12:08:45;;;;;;;5.97;1.23;;;20.10;67.50;;;;;;6307933;22;20015;-62
2023/10/25 12:11:10;;;;;;;3.75;1.20;;;20.10;67.50;;;;;;6278687;22;20019;-62
2023/10/25 12:13:39;;;;;;;2.05;1.10;;;20.10;67.50;;;;;;6307360;22;20015;-62
2023/10/25 12:16:06;;;;;;;5.63;1.10;;;20.10;67.50;;;;;;6279288;22;20068;-61
2023/10/25 12:18:33;;;;;;;6.63;1.60;;;20.10;67.50;;;;;;6306150;22;20027;-61
2023/10/25 12:21:00;;;;;;;5.63;1.48;;;20.10;67.50;;;;;;6279772;22;20027;-61
2023/10/25 12:23:26;;;;;;;4.03;1.00;;;20.20;67.70;;;;;;6306858;22;20333;-61
2023/10/25 12:25:52;;;;;;;3.67;0.93;;;20.20;67.80;;;;;;6306517;22;20336;-61
2023/10/25 12:28:17;;;;;;;4.47;1.10;;;20.20;67.80;;;;;;6307009;22;20011;-61
2023/10/25 12:30:43;;;;;;;3.67;1.10;;;20.20;67.80;;;;;;6306499;22;20128;-61
2023/10/25 12:33:08;;;;;;;3.97;1.02;;;20.20;67.90;;;;;;6277937;22;20026;-60
2023/10/25 12:35:34;;;;;;;4.38;1.00;;;20.30;68.00;;;;;;6306720;22;20090;-61
2023/10/25 12:37:59;;;;;;;5.13;1.10;;;20.30;68.00;;;;;;6278803;22;20023;-61
2023/10/25 12:40:25;;;;;;;4.30;1.10;;;20.30;68.00;;;;;;6278473;22;20022;-60
2023/10/25 12:42:51;;;;;;;4.55;1.38;;;20.30;68.00;;;;;;6307050;22;20019;-60
2023/10/25 12:45:16;;;;;;;4.30;1.20;;;20.30;68.00;;;;;;6279498;22;20016;-60